Time;durP1;ratioP1;P1;durP2;ratioP2;P2;SDS_P1;SDS_P2;PMS_P1;PMS_P2;Temp;Humidity;BMP_temperature;BMP_pressure;BME280_temperature;BME280_humidity;BME280_pressure;Samples;Min_cycle;Max_cycle;Signal;HPM_P1;HPM_P2
2023/10/03 00:02:57;;;;;;;5.03;2.92;;;15.80;94.00;15.70;100683.00;;;;4993500;28;88011;-66
2023/10/03 00:05:28;;;;;;;6.70;3.28;;;15.70;94.00;15.60;100681.00;;;;4991686;27;89743;-66
2023/10/03 00:07:56;;;;;;;3.97;2.92;;;15.60;94.20;15.50;100677.00;;;;4986463;28;87984;-65
2023/10/03 00:10:23;;;;;;;6.50;3.80;;;15.60;94.30;15.40;100662.00;;;;4990277;27;88152;-65
2023/10/03 00:12:51;;;;;;;4.60;3.65;;;15.50;94.50;15.40;100661.00;;;;4991581;27;87922;-65
2023/10/03 00:15:21;;;;;;;7.35;4.45;;;15.40;94.50;15.30;100668.00;;;;4992735;27;88091;-66
2023/10/03 00:17:47;;;;;;;5.47;3.63;;;15.30;94.70;15.20;100674.00;;;;4992465;28;88102;-65
2023/10/03 00:20:16;;;;;;;5.13;3.28;;;15.20;94.80;15.10;100669.00;;;;4989418;27;87833;-66
2023/10/03 00:22:44;;;;;;;4.65;3.08;;;15.10;94.90;15.10;100670.00;;;;4952915;28;89121;-66
2023/10/03 00:25:17;;;;;;;6.15;4.10;;;15.10;95.00;15.00;100671.00;;;;4984267;27;88187;-66
2023/10/03 00:27:52;;;;;;;8.55;4.60;;;15.00;95.10;15.00;100671.00;;;;4976065;28;88122;-65
2023/10/03 00:30:19;;;;;;;5.28;3.78;;;14.90;95.30;14.90;100661.00;;;;4983822;27;87890;-66
2023/10/03 00:32:46;;;;;;;6.75;3.60;;;15.10;95.50;14.80;100656.00;;;;4988705;28;88091;-66
2023/10/03 00:35:12;;;;;;;4.15;3.45;;;14.80;95.60;14.70;100655.00;;;;4990406;27;88305;-66
2023/10/03 00:37:39;;;;;;;4.65;3.47;;;14.80;95.70;14.70;100652.00;;;;4985566;27;90434;-66
2023/10/03 00:42:59;;;;;;;4.65;4.05;;;14.60;96.00;14.50;100635.00;;;;4987013;28;87829;-66
2023/10/03 00:45:31;;;;;;;5.35;3.70;;;14.50;96.10;14.40;100635.00;;;;4989203;27;88023;-66
2023/10/03 00:47:59;;;;;;;6.57;4.15;;;14.40;96.30;14.30;100644.00;;;;4991495;27;88824;-66
2023/10/03 00:50:37;;;;;;;5.40;3.50;;;14.40;96.40;14.30;100630.00;;;;4975644;28;87977;-66
2023/10/03 00:53:08;;;;;;;6.10;4.53;;;14.30;96.50;14.20;100629.00;;;;4975301;27;89891;-65
2023/10/03 00:55:39;;;;;;;3.80;3.30;;;14.20;96.60;14.20;100625.00;;;;4969675;28;88747;-65
2023/10/03 01:00:42;;;;;;;10.23;4.78;;;14.10;96.90;14.10;100616.00;;;;4983732;28;87918;-65
2023/10/03 01:03:31;;;;;;;5.57;3.50;;;14.10;97.00;14.00;100606.00;;;;4989637;27;88130;-66
2023/10/03 01:06:08;;;;;;;6.47;3.90;;;14.00;97.10;14.00;100614.00;;;;4970436;28;87669;-65
2023/10/03 01:08:38;;;;;;;4.97;3.73;;;14.00;97.30;13.90;100611.00;;;;4987949;27;87765;-66
2023/10/03 01:11:07;;;;;;;5.50;4.18;;;13.90;97.30;13.80;100610.00;;;;4989962;27;88039;-66
2023/10/03 01:13:34;;;;;;;7.53;3.15;;;13.80;97.50;13.80;100605.00;;;;4987531;28;88908;-65
2023/10/03 01:16:03;;;;;;;6.43;3.58;;;13.80;97.60;13.70;100617.00;;;;4977820;28;89114;-66
2023/10/03 01:18:31;;;;;;;5.53;3.55;;;13.80;97.80;13.70;100603.00;;;;4988709;28;88649;-66
2023/10/03 01:21:00;;;;;;;6.97;4.07;;;13.70;98.00;13.60;100602.00;;;;4990530;27;88068;-66
2023/10/03 01:23:35;;;;;;;3.17;2.37;;;13.60;98.00;13.60;100594.00;;;;4990263;27;88143;-66
2023/10/03 01:26:06;;;;;;;4.95;3.22;;;13.70;98.10;13.50;100595.00;;;;4991115;27;88052;-67
2023/10/03 01:28:32;;;;;;;4.90;3.23;;;13.60;98.20;13.50;100592.00;;;;4991590;27;88408;-66
2023/10/03 01:30:57;;;;;;;5.53;3.77;;;13.50;98.30;13.40;100583.00;;;;4994597;27;109113;-66
2023/10/03 01:33:26;;;;;;;6.33;3.20;;;13.50;98.50;13.40;100593.00;;;;4988867;27;92616;-66
2023/10/03 01:35:53;;;;;;;4.70;3.03;;;13.40;98.60;13.30;100588.00;;;;4973319;28;87974;-67
2023/10/03 01:38:20;;;;;;;5.50;3.27;;;13.30;98.70;13.30;100580.00;;;;4989367;28;88773;-66
2023/10/03 01:40:51;;;;;;;3.10;2.77;;;13.40;98.90;13.20;100582.00;;;;4993412;28;87666;-67
2023/10/03 01:43:18;;;;;;;5.35;2.88;;;13.30;99.00;13.20;100577.00;;;;4990125;28;87959;-66
2023/10/03 01:45:43;;;;;;;10.27;4.10;;;13.20;99.10;13.10;100580.00;;;;4988481;28;88934;-66
2023/10/03 01:48:12;;;;;;;3.47;3.03;;;13.20;99.20;13.10;100566.00;;;;4985205;28;117428;-66
2023/10/03 01:50:38;;;;;;;4.57;3.53;;;13.10;99.40;13.00;100560.00;;;;4990994;28;87766;-65
2023/10/03 01:53:07;;;;;;;4.37;2.87;;;13.10;99.60;13.00;100562.00;;;;4987029;28;88000;-65
2023/10/03 01:55:34;;;;;;;4.30;3.13;;;13.00;99.70;12.90;100557.00;;;;4986985;27;88546;-66
2023/10/03 01:57:59;;;;;;;6.23;3.70;;;12.90;99.80;12.90;100558.00;;;;4990227;28;87795;-65
2023/10/03 02:00:26;;;;;;;6.03;2.97;;;12.90;99.90;12.80;100555.00;;;;4989782;28;88182;-65
2023/10/03 02:03:11;;;;;;;7.90;3.67;;;12.90;99.90;12.80;100547.00;;;;4984785;27;89213;-65
2023/10/03 02:05:40;;;;;;;4.07;3.57;;;12.80;99.90;12.80;100545.00;;;;4988888;28;88028;-66
2023/10/03 02:08:18;;;;;;;6.80;4.40;;;12.80;99.90;12.70;100534.00;;;;4986380;27;89013;-66
2023/10/03 02:10:45;;;;;;;7.47;4.47;;;12.70;99.90;12.70;100531.00;;;;4984385;28;88380;-66
2023/10/03 02:13:14;;;;;;;6.83;4.57;;;12.70;99.90;12.70;100525.00;;;;4984441;28;87549;-66
2023/10/03 02:15:42;;;;;;;8.73;3.80;;;12.70;99.90;12.60;100524.00;;;;4987056;28;88412;-65
2023/10/03 02:18:18;;;;;;;5.93;3.67;;;12.60;99.90;12.60;100509.00;;;;4986741;28;88905;-66
2023/10/03 02:20:51;;;;;;;7.33;3.83;;;12.60;99.90;12.50;100511.00;;;;4987945;28;87275;-65
2023/10/03 02:23:25;;;;;;;5.73;4.03;;;12.50;99.90;12.50;100516.00;;;;4974167;28;87996;-66
2023/10/03 02:25:57;;;;;;;5.37;3.17;;;12.50;99.90;12.50;100515.00;;;;4989753;28;89659;-66
2023/10/03 02:28:26;;;;;;;5.83;3.87;;;12.50;99.90;12.50;100503.00;;;;4969936;28;88809;-66
2023/10/03 02:30:52;;;;;;;4.73;3.63;;;12.50;99.90;12.40;100502.00;;;;4992417;27;87950;-64
2023/10/03 02:33:22;;;;;;;4.37;3.20;;;12.40;99.90;12.40;100496.00;;;;4988253;27;109337;-66
2023/10/03 02:35:50;;;;;;;4.40;3.47;;;12.40;99.90;12.40;100492.00;;;;4990104;27;88267;-66
2023/10/03 02:38:29;;;;;;;6.53;4.00;;;12.40;99.90;12.40;100488.00;;;;4987344;28;88747;-66
2023/10/03 02:40:59;;;;;;;7.23;3.50;;;12.40;99.90;12.40;100489.00;;;;4987657;27;89409;-65
2023/10/03 02:43:30;;;;;;;8.57;3.97;;;12.40;99.90;12.40;100489.00;;;;4989099;28;88892;-65
2023/10/03 02:45:56;;;;;;;5.53;3.53;;;12.40;99.90;12.30;100482.00;;;;4990458;28;90389;-65
2023/10/03 02:48:21;;;;;;;4.53;3.20;;;12.40;99.90;12.30;100484.00;;;;4987077;27;114939;-65
2023/10/03 02:50:50;;;;;;;5.20;3.37;;;12.30;99.90;12.30;100476.00;;;;4991093;28;88030;-65
2023/10/03 02:53:20;;;;;;;5.23;3.50;;;12.30;99.90;12.30;100469.00;;;;4984036;28;89092;-65
2023/10/03 02:55:51;;;;;;;10.17;3.53;;;12.30;99.90;12.20;100464.00;;;;4984839;27;88669;-65
2023/10/03 02:58:20;;;;;;;6.80;3.53;;;12.20;99.90;12.20;100457.00;;;;4982310;27;94120;-65
2023/10/03 03:00:48;;;;;;;12.93;4.13;;;12.20;99.90;12.20;100445.00;;;;4987902;27;87894;-66
2023/10/03 03:03:14;;;;;;;4.03;3.53;;;12.20;99.90;12.10;100438.00;;;;4986840;28;95414;-66
2023/10/03 03:05:42;;;;;;;5.70;3.53;;;12.20;99.90;12.10;100438.00;;;;4984567;27;88936;-66
2023/10/03 03:08:27;;;;;;;5.23;3.17;;;12.10;99.90;12.10;100430.00;;;;4983320;27;89652;-66
2023/10/03 03:10:57;;;;;;;7.13;2.83;;;12.10;99.90;12.00;100427.00;;;;4974841;28;87387;-65
2023/10/03 03:13:27;;;;;;;10.00;3.30;;;12.00;99.90;12.00;100424.00;;;;4986556;28;87798;-66
2023/10/03 03:15:59;;;;;;;11.00;3.63;;;12.00;99.90;12.00;100424.00;;;;4984903;27;88899;-65
2023/10/03 03:18:43;;;;;;;7.63;3.30;;;12.00;99.90;11.90;100420.00;;;;4984686;28;89011;-65
2023/10/03 03:21:19;;;;;;;4.47;2.50;;;12.00;99.90;11.90;100415.00;;;;4986344;27;87853;-67
2023/10/03 03:24:00;;;;;;;9.40;4.30;;;11.90;99.90;11.90;100404.00;;;;4988438;28;87996;-66
2023/10/03 03:26:36;;;;;;;3.97;3.53;;;11.90;99.90;11.90;100405.00;;;;4984743;27;89252;-66
2023/10/03 03:29:07;;;;;;;5.40;3.40;;;11.90;99.90;11.80;100398.00;;;;4981609;27;88866;-66
2023/10/03 03:31:32;;;;;;;8.17;4.30;;;11.90;99.90;11.80;100395.00;;;;4991550;27;87904;-66
2023/10/03 03:34:00;;;;;;;5.30;3.67;;;11.90;99.90;11.80;100386.00;;;;4991360;27;97062;-65
2023/10/03 03:36:34;;;;;;;8.10;3.63;;;11.80;99.90;11.80;100376.00;;;;4989429;28;88444;-65
2023/10/03 03:39:15;;;;;;;5.00;3.73;;;11.80;99.90;11.80;100369.00;;;;4976509;28;87772;-66
2023/10/03 03:41:42;;;;;;;3.73;2.60;;;11.80;99.90;11.80;100372.00;;;;4971671;28;88136;-66
2023/10/03 03:44:12;;;;;;;8.53;3.47;;;11.80;99.90;11.70;100361.00;;;;4988439;28;88764;-66
2023/10/03 03:46:41;;;;;;;7.93;3.13;;;11.80;99.90;11.70;100356.00;;;;4988884;28;88075;-66
2023/10/03 03:49:11;;;;;;;7.10;3.53;;;11.70;99.90;11.70;100353.00;;;;4988299;28;88538;-66
2023/10/03 03:51:37;;;;;;;5.50;3.40;;;11.70;99.90;11.60;100354.00;;;;4990245;27;88141;-66
2023/10/03 03:54:10;;;;;;;5.63;2.90;;;11.70;99.90;11.70;100348.00;;;;4986878;27;103451;-67
2023/10/03 03:56:35;;;;;;;5.33;4.00;;;11.70;99.90;11.70;100360.00;;;;4988171;27;87762;-66
2023/10/03 03:59:03;;;;;;;7.37;3.87;;;11.70;99.90;11.70;100348.00;;;;4989266;27;118093;-66
2023/10/03 04:01:28;;;;;;;4.87;3.53;;;11.70;99.90;11.60;100344.00;;;;4992759;28;87218;-66
2023/10/03 04:03:57;;;;;;;5.80;2.37;;;11.70;99.90;11.60;100342.00;;;;4988251;28;88280;-67
2023/10/03 04:06:23;;;;;;;3.60;2.63;;;11.60;99.90;11.60;100340.00;;;;4987892;28;88372;-67
2023/10/03 04:08:49;;;;;;;5.43;3.43;;;11.70;99.90;11.60;100341.00;;;;4986119;28;90024;-66
2023/10/03 04:11:15;;;;;;;5.17;3.87;;;11.80;99.90;11.60;100335.00;;;;4991969;28;88170;-65
2023/10/03 04:13:49;;;;;;;5.07;2.67;;;11.60;99.90;11.60;100330.00;;;;4986358;28;88182;-66
2023/10/03 04:16:21;;;;;;;7.57;3.47;;;11.60;99.90;11.60;100332.00;;;;4970473;28;88893;-66
2023/10/03 04:18:51;;;;;;;4.77;3.27;;;11.60;99.90;11.60;100322.00;;;;4988360;28;88052;-65
2023/10/03 04:21:19;;;;;;;4.20;2.90;;;11.60;99.90;11.60;100317.00;;;;4987710;27;87976;-65
2023/10/03 04:23:44;;;;;;;5.00;3.57;;;11.60;99.90;11.60;100312.00;;;;4971642;28;89476;-66
2023/10/03 04:26:11;;;;;;;7.07;3.17;;;11.60;99.90;11.60;100308.00;;;;4985925;27;116392;-66
2023/10/03 04:28:40;;;;;;;4.27;2.60;;;11.60;99.90;11.50;100303.00;;;;4987306;28;88906;-67
2023/10/03 04:31:06;;;;;;;4.87;2.97;;;11.60;99.90;11.50;100306.00;;;;4989952;28;88098;-65
2023/10/03 04:33:32;;;;;;;3.83;2.70;;;11.50;99.90;11.50;100297.00;;;;4989287;27;88988;-65
2023/10/03 04:36:03;;;;;;;3.70;3.03;;;11.50;99.90;11.50;100294.00;;;;4988242;27;117012;-66
2023/10/03 04:38:30;;;;;;;5.13;2.70;;;11.50;99.90;11.50;100285.00;;;;4978363;28;88343;-66
2023/10/03 04:40:56;;;;;;;6.87;3.27;;;11.50;99.90;11.40;100283.00;;;;4990881;28;88353;-66
2023/10/03 04:43:22;;;;;;;3.83;2.97;;;11.50;99.90;11.40;100288.00;;;;4987987;28;108753;-66
2023/10/03 04:45:47;;;;;;;3.37;2.20;;;11.40;99.90;11.40;100288.00;;;;4988429;28;89351;-65
2023/10/03 04:48:13;;;;;;;5.53;2.77;;;11.40;99.90;11.40;100288.00;;;;4975909;28;88055;-67
2023/10/03 04:50:40;;;;;;;6.50;2.70;;;11.40;99.90;11.40;100288.00;;;;4990090;28;87245;-66
2023/10/03 04:53:14;;;;;;;3.83;3.50;;;11.40;99.90;11.40;100293.00;;;;4994264;27;90174;-65
2023/10/03 04:55:47;;;;;;;3.33;2.70;;;11.40;99.90;11.30;100285.00;;;;4973323;28;89738;-65
2023/10/03 04:58:12;;;;;;;5.90;2.77;;;11.40;99.90;11.30;100282.00;;;;4988031;28;90953;-66
2023/10/03 05:00:39;;;;;;;2.33;2.13;;;11.40;99.90;11.30;100286.00;;;;4989865;27;111527;-65
2023/10/03 05:03:04;;;;;;;3.17;2.37;;;11.30;99.90;11.30;100288.00;;;;4987083;28;87903;-65
2023/10/03 05:05:32;;;;;;;2.90;2.70;;;11.40;99.90;11.30;100283.00;;;;4986327;28;118090;-66
2023/10/03 05:07:58;;;;;;;3.33;3.03;;;11.30;99.90;11.30;100288.00;;;;4987913;28;88893;-66
2023/10/03 05:10:27;;;;;;;5.77;3.20;;;11.30;99.90;11.30;100285.00;;;;4987298;28;88074;-65
2023/10/03 05:12:52;;;;;;;2.80;2.40;;;11.40;99.90;11.30;100288.00;;;;4986767;28;88004;-66
2023/10/03 05:15:19;;;;;;;6.67;3.10;;;11.40;99.90;11.30;100287.00;;;;4985707;28;92723;-67
2023/10/03 05:17:47;;;;;;;3.60;2.70;;;11.30;99.90;11.30;100285.00;;;;4972626;28;87965;-66
2023/10/03 05:20:17;;;;;;;4.63;2.80;;;11.30;99.90;11.40;100287.00;;;;4986811;28;87925;-66
2023/10/03 05:22:45;;;;;;;3.80;2.77;;;11.40;99.90;11.40;100274.00;;;;4984155;28;89145;-66
2023/10/03 05:25:11;;;;;;;6.13;2.93;;;11.40;99.90;11.40;100286.00;;;;4945733;28;1105361;-66
2023/10/03 05:27:40;;;;;;;4.37;2.73;;;11.40;99.90;11.50;100280.00;;;;4989039;28;89065;-66
2023/10/03 05:30:08;;;;;;;7.77;2.83;;;11.50;99.90;11.60;100285.00;;;;4987173;28;88323;-66
2023/10/03 05:32:38;;;;;;;5.40;3.73;;;11.60;99.90;11.70;100280.00;;;;4991641;28;87685;-66
2023/10/03 05:35:06;;;;;;;4.13;2.80;;;11.70;99.90;11.90;100278.00;;;;4987564;27;88535;-67
2023/10/03 05:37:33;;;;;;;8.43;4.27;;;11.80;99.90;12.20;100272.00;;;;4987089;27;88059;-66
2023/10/03 05:40:00;;;;;;;4.30;2.73;;;12.00;99.90;12.50;100275.00;;;;4989176;28;87307;-66
2023/10/03 05:42:26;;;;;;;4.10;3.10;;;12.40;99.90;12.90;100279.00;;;;4987783;27;89387;-66
2023/10/03 05:44:53;;;;;;;4.00;3.03;;;12.60;99.90;13.10;100274.00;;;;4991118;28;88058;-65
2023/10/03 05:47:21;;;;;;;5.37;3.53;;;13.00;99.90;13.50;100282.00;;;;4989962;28;90115;-66
2023/10/03 05:49:47;;;;;;;6.37;3.10;;;13.30;99.90;13.80;100284.00;;;;4988281;28;111317;-65
2023/10/03 05:52:12;;;;;;;3.63;2.80;;;13.60;99.90;14.10;100277.00;;;;4988966;28;87865;-66
2023/10/03 05:54:38;;;;;;;6.53;3.87;;;13.90;99.90;14.40;100268.00;;;;4986425;27;117784;-68
2023/10/03 05:57:04;;;;;;;8.57;4.30;;;14.20;99.90;14.70;100271.00;;;;4987954;28;116535;-65
2023/10/03 05:59:29;;;;;;;9.40;3.88;;;14.50;99.90;15.10;100278.00;;;;4986200;28;111914;-66
2023/10/03 06:01:57;;;;;;;8.73;4.10;;;14.90;99.90;15.50;100273.00;;;;4986316;28;109309;-66
2023/10/03 06:04:24;;;;;;;6.80;3.72;;;15.20;99.90;15.90;100278.00;;;;4985552;28;88229;-65
2023/10/03 06:06:50;;;;;;;9.77;4.22;;;15.60;99.90;16.20;100267.00;;;;4983609;28;88208;-66
2023/10/03 06:09:15;;;;;;;13.45;4.50;;;15.90;99.90;16.50;100276.00;;;;4984528;28;88110;-67
2023/10/03 06:11:47;;;;;;;7.78;4.10;;;16.30;99.90;16.80;100275.00;;;;4984138;28;107183;-67
2023/10/03 06:14:14;;;;;;;7.00;4.15;;;16.60;99.90;17.20;100268.00;;;;4983191;28;88279;-66
2023/10/03 06:16:40;;;;;;;10.60;4.05;;;16.90;99.90;17.50;100269.00;;;;4986174;28;89767;-66
2023/10/03 06:19:07;;;;;;;10.35;5.22;;;17.20;99.90;17.80;100253.00;;;;4985162;28;88135;-65
2023/10/03 06:21:33;;;;;;;7.22;4.13;;;17.50;99.10;18.10;100260.00;;;;4983386;28;88360;-66
2023/10/03 06:23:59;;;;;;;5.72;4.28;;;17.80;98.10;18.40;100264.00;;;;4985073;28;88013;-66
2023/10/03 06:26:24;;;;;;;5.15;3.47;;;18.10;97.40;18.60;100260.00;;;;4983249;28;117628;-66
2023/10/03 06:28:50;;;;;;;9.23;3.65;;;18.40;96.70;18.80;100249.00;;;;4971994;28;87032;-65
2023/10/03 06:31:21;;;;;;;7.63;4.18;;;18.60;95.90;19.00;100251.00;;;;4982032;27;89175;-66
2023/10/03 06:33:47;;;;;;;8.60;4.07;;;18.80;95.50;19.20;100242.00;;;;4988062;28;87778;-64
2023/10/03 06:36:12;;;;;;;5.38;3.88;;;19.00;94.30;19.40;100241.00;;;;4986021;28;88951;-66
2023/10/03 06:38:41;;;;;;;7.82;3.55;;;19.20;94.00;19.60;100239.00;;;;4986923;28;109034;-65
2023/10/03 06:41:07;;;;;;;6.03;3.60;;;19.30;93.30;19.70;100228.00;;;;4986086;27;87927;-64
2023/10/03 06:43:33;;;;;;;7.43;3.67;;;19.50;92.70;19.80;100238.00;;;;4983007;28;91423;-66
2023/10/03 06:46:00;;;;;;;6.18;3.80;;;19.60;92.40;20.00;100242.00;;;;4964261;28;95879;-65
2023/10/03 06:48:26;;;;;;;7.20;3.28;;;19.70;92.10;20.10;100241.00;;;;4980622;27;87943;-64
2023/10/03 06:50:53;;;;;;;9.95;5.25;;;19.90;91.70;20.30;100245.00;;;;4985939;27;88787;-65
2023/10/03 06:53:19;;;;;;;9.93;4.15;;;20.10;91.80;20.50;100248.00;;;;4985158;28;87803;-65
2023/10/03 06:55:45;;;;;;;10.63;4.95;;;20.20;91.00;20.60;100236.00;;;;4986925;28;88225;-66
2023/10/03 06:58:11;;;;;;;8.85;3.72;;;20.30;90.60;20.80;100244.00;;;;4982873;27;109227;-66
2023/10/03 07:00:38;;;;;;;6.38;3.65;;;20.50;90.60;21.00;100242.00;;;;4962950;28;88978;-65
2023/10/03 07:03:04;;;;;;;6.95;3.40;;;20.70;90.00;21.00;100248.00;;;;4981172;27;88024;-66
2023/10/03 07:05:30;;;;;;;6.30;4.25;;;20.80;89.40;21.10;100249.00;;;;4970995;28;116342;-66
2023/10/03 07:07:55;;;;;;;7.25;4.60;;;21.00;89.00;21.20;100242.00;;;;4982146;28;109746;-65
2023/10/03 07:10:21;;;;;;;12.63;4.43;;;21.00;88.00;21.30;100222.00;;;;4985264;28;109122;-65
2023/10/03 07:12:48;;;;;;;12.00;5.43;;;21.10;87.00;21.40;100230.00;;;;4983605;28;88957;-66
2023/10/03 07:15:13;;;;;;;8.23;4.43;;;21.10;86.10;21.40;100231.00;;;;4984125;28;88271;-65
2023/10/03 07:17:39;;;;;;;9.90;4.10;;;21.20;85.80;21.50;100239.00;;;;4986440;28;94718;-65
2023/10/03 07:20:08;;;;;;;8.98;4.88;;;21.30;86.00;21.60;100228.00;;;;4980647;27;88226;-66
2023/10/03 07:22:34;;;;;;;14.38;4.80;;;21.40;85.00;21.70;100230.00;;;;4983712;28;88784;-66
2023/10/03 07:25:00;;;;;;;9.68;4.25;;;21.50;84.70;21.80;100233.00;;;;4979579;28;116940;-65
2023/10/03 07:27:26;;;;;;;9.70;4.85;;;21.60;84.00;22.00;100244.00;;;;4981530;27;110074;-66
2023/10/03 07:29:52;;;;;;;9.82;3.97;;;21.70;83.60;22.20;100235.00;;;;4982657;28;109553;-67
2023/10/03 07:32:18;;;;;;;5.30;3.75;;;21.90;82.50;22.30;100223.00;;;;4982519;27;89232;-66
2023/10/03 07:34:46;;;;;;;8.02;4.40;;;22.10;82.10;22.50;100223.00;;;;4985138;28;88269;-66
2023/10/03 07:37:16;;;;;;;8.77;4.13;;;22.20;81.70;22.60;100232.00;;;;4984846;28;87768;-67
2023/10/03 07:39:42;;;;;;;6.05;3.63;;;22.40;80.90;22.70;100226.00;;;;4982076;28;87857;-66
2023/10/03 07:42:08;;;;;;;6.03;4.03;;;22.50;79.10;22.80;100219.00;;;;4983143;28;88631;-65
2023/10/03 07:44:36;;;;;;;5.00;4.20;;;22.60;78.90;22.90;100220.00;;;;4969301;28;87750;-67
2023/10/03 07:47:03;;;;;;;6.88;4.78;;;22.70;78.30;23.10;100222.00;;;;4980981;28;88337;-65
2023/10/03 07:49:31;;;;;;;5.07;3.95;;;22.80;77.80;23.30;100214.00;;;;4981679;27;89127;-65
2023/10/03 07:51:59;;;;;;;4.45;3.88;;;23.00;77.60;23.50;100224.00;;;;4985685;27;88458;-66
2023/10/03 07:54:31;;;;;;;9.73;4.50;;;23.20;76.40;23.70;100220.00;;;;4982166;28;87986;-66
2023/10/03 07:57:08;;;;;;;8.02;4.55;;;23.40;76.20;23.90;100210.00;;;;4980585;27;89452;-65
2023/10/03 07:59:34;;;;;;;8.77;4.15;;;23.60;75.40;24.20;100214.00;;;;4982817;27;88393;-66
2023/10/03 08:02:05;;;;;;;8.02;2.90;;;23.90;75.10;24.50;100225.00;;;;4979911;28;87827;-66
2023/10/03 08:04:37;;;;;;;8.13;3.55;;;24.10;73.50;24.60;100207.00;;;;4980442;28;88611;-65
2023/10/03 08:07:04;;;;;;;6.00;4.25;;;24.30;71.40;24.60;100202.00;;;;4981990;28;88683;-66
2023/10/03 08:09:31;;;;;;;9.15;3.10;;;24.40;71.20;24.70;100201.00;;;;4960014;28;88247;-67
2023/10/03 08:11:57;;;;;;;10.70;3.92;;;24.50;69.70;24.80;100216.00;;;;4981975;28;88503;-67
2023/10/03 08:14:23;;;;;;;8.43;4.05;;;24.50;69.50;24.80;100200.00;;;;4981471;28;89003;-67
2023/10/03 08:16:49;;;;;;;7.65;3.25;;;24.60;68.50;24.90;100194.00;;;;4983746;28;87786;-66
2023/10/03 08:19:25;;;;;;;7.55;3.40;;;24.70;67.80;25.00;100199.00;;;;4987404;27;87924;-67
2023/10/03 08:21:55;;;;;;;5.18;2.88;;;24.70;67.60;25.00;100194.00;;;;4987006;28;87903;-66
2023/10/03 08:24:25;;;;;;;7.03;3.75;;;24.80;67.40;25.10;100183.00;;;;4986234;28;89326;-66
2023/10/03 08:27:01;;;;;;;10.95;4.15;;;24.80;66.30;25.20;100189.00;;;;4952791;28;88075;-67
2023/10/03 08:29:27;;;;;;;10.88;4.53;;;24.90;66.60;25.40;100176.00;;;;4985517;28;88218;-67
2023/10/03 08:31:57;;;;;;;10.75;3.95;;;25.10;65.70;25.60;100179.00;;;;4983805;27;88282;-66
2023/10/03 08:34:30;;;;;;;5.80;3.42;;;25.30;64.90;25.80;100196.00;;;;4984299;28;88342;-66
2023/10/03 08:37:00;;;;;;;7.00;3.92;;;25.50;63.70;26.00;100194.00;;;;4976707;28;106174;-66
2023/10/03 08:39:27;;;;;;;8.07;3.90;;;25.70;63.40;26.10;100193.00;;;;4984453;28;89789;-67
2023/10/03 08:42:35;;;;;;;7.00;3.97;;;25.80;62.90;26.20;100190.00;;;;4985271;27;88764;-66
2023/10/03 08:45:26;;;;;;;7.90;3.90;;;25.90;62.50;26.50;100195.00;;;;4987865;28;88186;-66
2023/10/03 08:48:05;;;;;;;10.18;4.00;;;26.10;61.80;26.70;100191.00;;;;4969725;28;88182;-66
2023/10/03 08:50:52;;;;;;;8.20;4.35;;;26.30;61.00;27.00;100205.00;;;;4984758;28;87663;-66
2023/10/03 08:53:37;;;;;;;10.68;3.55;;;26.60;60.10;27.30;100190.00;;;;4985199;27;87819;-66
2023/10/03 08:56:03;;;;;;;10.30;3.88;;;26.90;59.00;27.50;100189.00;;;;4985821;27;88028;-66
2023/10/03 08:58:30;;;;;;;9.73;4.38;;;27.20;57.80;27.70;100191.00;;;;4983655;28;87746;-67
2023/10/03 09:01:02;;;;;;;8.90;3.85;;;27.30;57.50;27.90;100187.00;;;;4983202;28;87841;-66
2023/10/03 09:03:42;;;;;;;9.07;3.38;;;27.50;56.80;28.10;100169.00;;;;4986145;28;89415;-68
2023/10/03 09:06:07;;;;;;;18.13;5.32;;;27.80;55.70;28.30;100163.00;;;;4981044;27;90919;-67
2023/10/03 09:08:33;;;;;;;9.07;4.40;;;28.00;54.40;28.30;100171.00;;;;4981127;27;110400;-67
2023/10/03 09:11:00;;;;;;;8.75;3.63;;;28.00;54.00;28.30;100166.00;;;;4980919;28;109290;-66
2023/10/03 09:13:28;;;;;;;6.32;3.38;;;28.00;54.20;28.20;100169.00;;;;4980490;28;88735;-66
2023/10/03 09:15:59;;;;;;;11.55;4.07;;;27.90;54.10;28.00;100163.00;;;;4983786;28;88701;-66
2023/10/03 09:18:42;;;;;;;8.90;3.08;;;27.80;53.90;27.90;100154.00;;;;4968154;27;88464;-67
2023/10/03 09:21:15;;;;;;;8.75;3.95;;;27.70;54.60;27.90;100155.00;;;;4982573;28;88135;-66
2023/10/03 09:24:02;;;;;;;14.02;4.20;;;27.60;54.30;27.90;100151.00;;;;4986178;28;87121;-66
2023/10/03 09:27:07;;;;;;;7.45;4.18;;;27.70;54.20;27.90;100160.00;;;;4983126;28;89023;-68
2023/10/03 09:29:33;;;;;;;7.80;4.28;;;27.60;53.90;27.80;100145.00;;;;4965441;28;88053;-69
2023/10/03 09:32:12;;;;;;;6.43;3.67;;;27.50;53.50;27.70;100142.00;;;;4987568;27;109319;-67
2023/10/03 09:34:41;;;;;;;12.10;4.90;;;27.50;53.70;27.60;100141.00;;;;4982154;28;87930;-68
2023/10/03 09:37:07;;;;;;;8.82;3.67;;;27.30;54.00;27.50;100135.00;;;;4984834;28;88673;-68
2023/10/03 09:39:47;;;;;;;11.55;4.20;;;27.30;54.30;27.40;100138.00;;;;4985676;28;87916;-70
2023/10/03 09:42:18;;;;;;;8.85;3.78;;;27.20;54.00;27.50;100151.00;;;;4984736;28;88232;-69
2023/10/03 09:44:48;;;;;;;4.40;2.53;;;27.20;54.40;27.70;100138.00;;;;4982603;28;89338;-68
2023/10/03 09:47:17;;;;;;;7.13;3.13;;;27.30;54.10;27.80;100144.00;;;;4981276;28;88618;-69
2023/10/03 09:49:43;;;;;;;4.32;3.10;;;27.50;54.20;27.90;100136.00;;;;4959262;28;87155;-68
2023/10/03 09:52:22;;;;;;;7.20;4.47;;;27.60;54.10;28.00;100143.00;;;;4983543;28;87757;-68
2023/10/03 09:54:53;;;;;;;5.32;3.33;;;27.70;53.90;28.00;100133.00;;;;4964098;27;89223;-67
2023/10/03 09:57:24;;;;;;;9.48;3.13;;;27.60;53.60;28.00;100130.00;;;;4941073;28;90454;-68
2023/10/03 09:59:50;;;;;;;7.93;3.70;;;27.70;53.80;28.20;100125.00;;;;4960576;28;88177;-69
2023/10/03 10:02:30;;;;;;;6.57;3.33;;;27.80;53.80;28.30;100121.00;;;;4963002;28;87750;-68
2023/10/03 10:05:00;;;;;;;8.02;3.03;;;27.90;53.40;28.40;100121.00;;;;4948263;28;87989;-69
2023/10/03 10:07:37;;;;;;;6.55;3.15;;;28.00;53.00;28.40;100119.00;;;;4959878;28;108093;-69
2023/10/03 10:10:14;;;;;;;7.75;3.95;;;28.10;53.30;28.40;100136.00;;;;4944896;28;88214;-68
2023/10/03 10:13:13;;;;;;;7.70;3.72;;;28.10;52.80;28.30;100125.00;;;;4964698;28;88065;-68
2023/10/03 10:16:07;;;;;;;7.78;3.72;;;28.10;53.00;28.30;100124.00;;;;4960926;28;87408;-70
2023/10/03 10:18:45;;;;;;;7.13;3.10;;;28.00;52.70;28.30;100127.00;;;;4964719;28;88907;-70
2023/10/03 10:21:20;;;;;;;5.22;3.20;;;28.00;52.80;28.50;100107.00;;;;4961580;27;108606;-67
2023/10/03 10:24:24;;;;;;;7.07;3.08;;;28.10;52.90;28.80;100107.00;;;;4983778;27;88908;-69
2023/10/03 10:26:52;;;;;;;5.47;3.13;;;28.40;52.60;29.10;100115.00;;;;4975999;27;90659;-68
2023/10/03 10:29:24;;;;;;;7.68;3.15;;;28.70;51.70;29.50;100101.00;;;;4973029;28;88288;-69
2023/10/03 10:31:57;;;;;;;5.97;3.15;;;29.00;50.70;29.60;100118.00;;;;4982594;27;88070;-68
2023/10/03 10:34:40;;;;;;;5.68;3.15;;;29.20;50.00;29.80;100108.00;;;;4965993;28;87992;-68
2023/10/03 10:37:15;;;;;;;5.40;3.38;;;29.40;49.30;29.90;100104.00;;;;4983445;27;88370;-67
2023/10/03 10:40:10;;;;;;;8.32;3.03;;;29.50;48.10;30.10;100098.00;;;;4984133;27;88061;-67
2023/10/03 10:43:16;;;;;;;24.40;3.17;;;29.70;47.70;30.30;100091.00;;;;4979875;27;87752;-68
2023/10/03 10:45:44;;;;;;;7.53;3.00;;;29.90;46.90;30.60;100097.00;;;;4943748;28;88328;-68
2023/10/03 10:48:12;;;;;;;6.28;3.70;;;30.10;46.50;30.80;100099.00;;;;4963084;28;88884;-69
2023/10/03 10:51:07;;;;;;;15.85;3.13;;;30.40;46.20;30.90;100105.00;;;;4969435;27;89083;-68
2023/10/03 10:53:43;;;;;;;4.78;2.28;;;30.60;45.50;30.90;100104.00;;;;5002172;27;87910;-68
2023/10/03 10:56:11;;;;;;;4.43;2.55;;;30.50;45.60;30.80;100094.00;;;;4995298;27;87884;-69
2023/10/03 10:58:50;;;;;;;7.05;3.42;;;30.50;45.80;30.70;100107.00;;;;5004640;27;87728;-69
2023/10/03 11:01:18;;;;;;;6.93;3.45;;;30.40;45.40;30.40;100118.00;;;;4985877;27;87975;-67
2023/10/03 11:03:45;;;;;;;15.27;4.30;;;30.20;45.40;30.20;100123.00;;;;5002509;27;87952;-69
2023/10/03 11:06:16;;;;;;;7.50;3.78;;;29.90;45.70;29.90;100121.00;;;;5002920;27;88198;-68